createdAt,value
2018-11-20T00:02:50.819Z,100658.89
2018-11-20T00:05:37.981Z,100649.84
2018-11-20T00:08:26.263Z,100648.54
2018-11-20T00:11:20.411Z,100642.09
2018-11-20T00:14:07.786Z,100636.91
2018-11-20T00:16:56.058Z,100638.67
2018-11-20T00:19:44.332Z,100634.78
2018-11-20T00:22:43.285Z,100628.73
2018-11-20T00:25:43.811Z,100621.40
2018-11-20T00:28:38.062Z,100611.92
2018-11-20T00:31:17.857Z,100611.48
2018-11-20T00:34:04.840Z,100614.03
2018-11-20T00:37:08.130Z,100608.88
2018-11-20T00:39:56.512Z,100608.02
2018-11-20T00:42:43.550Z,100606.72
2018-11-20T00:45:30.625Z,100602.41
2018-11-20T00:48:34.015Z,100602.80
2018-11-20T00:51:21.328Z,100591.58
2018-11-20T00:54:12.357Z,100595.41
2018-11-20T00:57:04.975Z,100594.12
2018-11-20T01:00:17.655Z,100589.82
2018-11-20T01:03:05.094Z,100584.23
2018-11-20T01:05:51.940Z,100585.50
2018-11-20T01:08:43.204Z,100577.30
2018-11-20T01:11:31.492Z,100577.73
2018-11-20T01:14:34.955Z,100579.86
2018-11-20T01:17:32.922Z,100575.11
2018-11-20T01:20:19.998Z,100569.86
2018-11-20T01:23:14.735Z,100571.11
2018-11-20T01:26:01.520Z,100566.41
2018-11-20T01:28:49.796Z,100562.92
2018-11-20T01:31:50.044Z,100559.45
2018-11-20T01:34:37.159Z,100558.19
2018-11-20T01:37:24.214Z,100554.30
2018-11-20T01:40:00.376Z,100548.69
2018-11-20T01:43:03.886Z,100551.72
2018-11-20T01:46:07.206Z,100543.89
2018-11-20T01:49:07.475Z,100537.42
2018-11-20T01:52:04.458Z,100535.22
2018-11-20T01:54:59.068Z,100524.86
2018-11-20T01:58:02.528Z,100530.44
2018-11-20T02:00:48.992Z,100535.59
2018-11-20T02:03:48.981Z,100528.65
2018-11-20T02:06:37.264Z,100525.19
2018-11-20T02:09:27.146Z,100529.50
2018-11-20T02:12:20.140Z,100521.75
2018-11-20T02:15:20.668Z,100524.28
2018-11-20T02:18:32.044Z,100522.97
2018-11-20T02:21:20.920Z,100521.24
2018-11-20T02:23:59.993Z,100510.92
2018-11-20T02:27:00.669Z,100513.53
2018-11-20T02:29:47.483Z,100507.92
2018-11-20T02:32:34.318Z,100506.60
2018-11-20T02:35:25.335Z,100500.14
2018-11-20T02:38:09.691Z,100494.97
2018-11-20T02:40:57.680Z,100492.75
2018-11-20T02:43:47.077Z,100491.47
2018-11-20T02:46:29.353Z,100494.47
2018-11-20T02:49:10.249Z,100487.56
2018-11-20T02:52:00.227Z,100484.54
2018-11-20T02:54:51.505Z,100476.36
2018-11-20T02:57:44.745Z,100478.98
2018-11-20T03:00:45.014Z,100472.92
2018-11-20T03:03:25.124Z,100469.02
2018-11-20T03:06:28.379Z,100466.42
2018-11-20T03:09:28.669Z,100461.24
2018-11-20T03:12:15.543Z,100462.58
2018-11-20T03:15:02.505Z,100457.89
2018-11-20T03:18:48.773Z,100458.38
2018-11-20T03:21:23.837Z,100456.63
2018-11-20T03:24:26.598Z,100455.31
2018-11-20T03:27:14.065Z,100454.52
2018-11-20T03:31:00.744Z,100453.69
2018-11-20T03:33:49.984Z,100459.36
2018-11-20T03:36:36.503Z,100458.91
2018-11-20T03:39:30.151Z,100458.09
2018-11-20T03:42:06.964Z,100456.36
2018-11-20T03:44:51.850Z,100451.63
2018-11-20T03:47:39.340Z,100446.02
2018-11-20T03:50:39.078Z,100446.87
2018-11-20T03:53:26.530Z,100434.40
2018-11-20T03:56:19.752Z,100435.67
2018-11-20T03:59:13.092Z,100426.66
2018-11-20T04:01:59.337Z,100418.04
2018-11-20T04:04:37.596Z,100411.13
2018-11-20T04:07:37.533Z,100411.52
2018-11-20T04:10:23.640Z,100411.52
2018-11-20T04:13:01.201Z,100410.23
2018-11-20T04:15:55.172Z,100412.86
2018-11-20T04:18:43.491Z,100412.84
2018-11-20T04:21:36.710Z,100410.70
2018-11-20T04:24:33.783Z,100412.91
2018-11-20T04:27:21.017Z,100405.59
2018-11-20T04:30:54.637Z,100403.41
2018-11-20T04:34:11.451Z,100402.13
2018-11-20T04:37:04.899Z,100396.95
2018-11-20T04:39:40.972Z,100397.38
2018-11-20T04:42:34.171Z,100387.02
2018-11-20T04:45:20.216Z,100375.84
2018-11-20T04:48:05.028Z,100372.37
2018-11-20T04:51:07.764Z,100371.94
2018-11-20T04:53:46.632Z,100363.73
2018-11-20T04:56:32.713Z,100365.90
2018-11-20T04:59:29.243Z,100359.02
2018-11-20T05:02:16.728Z,100361.60
2018-11-20T05:05:07.246Z,100366.78
2018-11-20T05:08:06.761Z,100368.09
2018-11-20T05:10:46.115Z,100358.63
2018-11-20T05:13:38.899Z,100359.49
2018-11-20T05:16:35.424Z,100360.34
2018-11-20T05:19:21.905Z,100364.27
2018-11-20T05:22:18.545Z,100364.27
2018-11-20T05:25:15.010Z,100360.77
2018-11-20T05:28:01.295Z,100358.63
2018-11-20T05:32:09.564Z,100356.51
2018-11-20T05:34:53.475Z,100352.17
2018-11-20T05:37:59.168Z,100353.08
2018-11-20T05:40:52.236Z,100353.92
2018-11-20T05:43:44.225Z,100353.53
2018-11-20T05:46:31.935Z,100352.22
2018-11-20T05:49:19.437Z,100358.72
2018-11-20T05:52:12.301Z,100354.84
2018-11-20T05:55:15.172Z,100349.24
2018-11-20T05:58:11.655Z,100347.94
2018-11-20T06:04:22.829Z,100343.66
2018-11-20T06:07:16.595Z,100342.80
2018-11-20T06:10:10.382Z,100343.66
2018-11-20T06:12:56.766Z,100349.72
2018-11-20T06:15:42.857Z,100340.24
2018-11-20T06:18:28.739Z,100330.74
2018-11-20T06:21:16.234Z,100335.08
2018-11-20T06:24:05.651Z,100329.45
2018-11-20T06:27:08.538Z,100329.47
2018-11-20T06:30:04.824Z,100320.83
2018-11-20T06:32:52.342Z,100320.83
2018-11-20T06:35:45.728Z,100322.13
2018-11-20T06:38:33.197Z,100326.02
2018-11-20T06:41:28.753Z,100319.95
2018-11-20T06:44:28.461Z,100329.03
2018-11-20T06:47:23.556Z,100325.56
2018-11-20T06:50:19.901Z,100322.55
2018-11-20T06:53:19.651Z,100323.41
2018-11-20T06:56:13.628Z,100325.15
2018-11-20T06:59:09.548Z,100326.02
2018-11-20T07:02:00.119Z,100323.41
2018-11-20T07:04:46.196Z,100321.25
2018-11-20T07:07:32.546Z,100313.91
2018-11-20T07:10:37.863Z,100322.09
2018-11-20T07:13:35.859Z,100317.37
2018-11-20T07:16:44.766Z,100316.92
2018-11-20T07:19:38.228Z,100321.66
2018-11-20T07:25:46.612Z,100316.93
2018-11-20T07:28:31.774Z,100310.91
2018-11-20T07:31:37.848Z,100316.52
2018-11-20T07:34:43.635Z,100312.17
2018-11-20T07:37:31.193Z,100310.89
2018-11-20T07:40:33.603Z,100311.33
2018-11-20T07:43:24.035Z,100305.70
2018-11-20T07:46:17.635Z,100310.02
2018-11-20T07:49:03.793Z,100304.84
2018-11-20T07:52:03.317Z,100300.95
2018-11-20T07:54:49.602Z,100296.63
2018-11-20T07:57:35.973Z,100297.94
2018-11-20T08:00:23.087Z,100299.66
2018-11-20T08:03:16.580Z,100307.85
2018-11-20T08:06:02.871Z,100300.52
2018-11-20T08:08:53.214Z,100302.26
2018-11-20T08:11:46.779Z,100304.86
2018-11-20T08:14:39.201Z,100299.69
2018-11-20T08:17:17.007Z,100288.02
2018-11-20T08:20:03.007Z,100295.78
2018-11-20T08:22:56.296Z,100300.12
2018-11-20T08:25:53.178Z,100296.66
2018-11-20T08:28:39.266Z,100290.17
2018-11-20T08:31:45.268Z,100287.59
2018-11-20T08:34:41.632Z,100287.61
2018-11-20T08:37:30.209Z,100285.44
2018-11-20T08:40:19.282Z,100281.55
2018-11-20T08:43:06.954Z,100276.39
2018-11-20T08:45:57.104Z,100284.58
2018-11-20T08:48:44.603Z,100283.29
2018-11-20T08:51:30.837Z,100283.73
2018-11-20T08:54:36.502Z,100279.00
2018-11-20T08:57:38.819Z,100283.73
2018-11-20T09:00:32.811Z,100287.17
2018-11-20T09:03:18.976Z,100286.73
2018-11-20T09:06:06.368Z,100291.08
2018-11-20T09:09:09.269Z,100286.77
2018-11-20T09:11:58.476Z,100283.73
2018-11-20T09:14:44.618Z,100291.51
2018-11-20T09:17:30.883Z,100290.20
2018-11-20T09:20:17.572Z,100284.17
2018-11-20T09:23:04.972Z,100288.91
2018-11-20T09:25:59.034Z,100287.63
2018-11-20T09:28:36.720Z,100293.23
2018-11-20T09:31:23.043Z,100291.09
2018-11-20T09:34:16.746Z,100286.34
2018-11-20T09:37:13.198Z,100293.25
2018-11-20T09:40:07.705Z,100289.78
2018-11-20T09:42:46.861Z,100284.61
2018-11-20T09:45:59.991Z,100279.86
2018-11-20T09:48:53.346Z,100276.84
2018-11-20T09:51:43.713Z,100271.23
2018-11-20T09:54:24.821Z,100262.59
2018-11-20T09:57:17.221Z,100262.59
2018-11-20T10:00:07.613Z,100256.09
2018-11-20T10:02:56.773Z,100259.55
2018-11-20T10:05:46.304Z,100257.39
2018-11-20T10:08:30.503Z,100254.80
2018-11-20T10:11:33.406Z,100253.52
2018-11-20T10:14:30.264Z,100254.81
2018-11-20T10:17:35.787Z,100255.66
2018-11-20T10:20:19.991Z,100249.61
2018-11-20T10:23:12.247Z,100248.77
2018-11-20T10:25:58.746Z,100237.95
2018-11-20T10:28:45.021Z,100238.80
2018-11-20T10:31:47.009Z,100240.55
2018-11-20T10:34:46.753Z,100238.38
2018-11-20T10:37:45.910Z,100241.40
2018-11-20T10:40:32.574Z,100233.61
2018-11-20T10:43:24.586Z,100226.26
2018-11-20T10:46:24.231Z,100220.22
2018-11-20T10:49:26.985Z,100226.69
2018-11-20T10:52:29.865Z,100212.00
2018-11-20T10:55:16.031Z,100217.16
2018-11-20T10:57:52.583Z,100203.34
2018-11-20T11:00:39.121Z,100203.75
2018-11-20T11:03:44.978Z,100198.97
2018-11-20T11:06:31.898Z,100198.51
2018-11-20T11:09:22.406Z,100187.67
2018-11-20T11:12:16.203Z,100179.87
2018-11-20T11:15:09.215Z,100170.31
2018-11-20T11:18:17.597Z,100163.38
2018-11-20T11:21:14.350Z,100175.02
2018-11-20T11:24:14.045Z,100170.25
2018-11-20T11:27:00.234Z,100165.48
2018-11-20T11:30:06.015Z,100174.57
2018-11-20T11:33:31.391Z,100170.23
2018-11-20T11:36:17.982Z,100168.50
2018-11-20T11:39:27.882Z,100165.91
2018-11-20T11:42:15.329Z,100172.37
2018-11-20T11:45:35.184Z,100167.16
2018-11-20T11:48:34.799Z,100172.77
2018-11-20T11:51:27.851Z,100174.08
2018-11-20T11:54:12.738Z,100160.67
2018-11-20T11:57:18.501Z,100163.23
2018-11-20T12:00:14.987Z,100161.48
2018-11-20T12:09:01.929Z,100153.28
2018-11-20T12:11:56.536Z,100153.70
2018-11-20T12:14:42.756Z,100148.48
2018-11-20T12:17:29.133Z,100141.98
2018-11-20T12:20:15.436Z,100150.62
2018-11-20T12:23:01.354Z,100137.22
2018-11-20T12:25:51.673Z,100143.73
2018-11-20T12:28:51.090Z,100138.13
2018-11-20T12:31:44.302Z,100144.61
2018-11-20T12:34:31.462Z,100138.15
2018-11-20T12:37:31.121Z,100143.28
2018-11-20T12:40:18.183Z,100139.88
2018-11-20T12:43:21.051Z,100135.98
2018-11-20T12:46:13.176Z,100126.86
2018-11-20T12:49:19.092Z,100124.69
2018-11-20T12:52:07.361Z,100119.46
2018-11-20T12:54:53.703Z,100119.04
2018-11-20T12:57:45.920Z,100124.23
2018-11-20T13:00:35.224Z,100121.64
2018-11-20T13:03:21.442Z,100118.63
2018-11-20T13:06:07.503Z,100115.56
2018-11-20T13:08:53.981Z,100114.27
2018-11-20T13:11:56.415Z,100112.55
2018-11-20T13:14:42.422Z,100113.42
2018-11-20T13:17:37.965Z,100114.27
2018-11-20T13:20:36.474Z,100112.97
2018-11-20T13:23:21.573Z,100113.00
2018-11-20T13:26:15.020Z,100113.91
2018-11-20T13:29:01.143Z,100125.59
2018-11-20T13:31:47.447Z,100110.89
2018-11-20T13:34:40.941Z,100106.99
2018-11-20T13:37:28.439Z,100105.72
2018-11-20T13:40:10.492Z,100108.34
2018-11-20T13:43:04.249Z,100105.30
2018-11-20T13:45:53.791Z,100113.94
2018-11-20T13:48:57.648Z,100107.41
2018-11-20T13:51:57.448Z,100111.28
2018-11-20T13:54:44.969Z,100110.86
2018-11-20T13:57:35.034Z,100100.05
2018-11-20T14:00:14.987Z,100103.12
2018-11-20T14:03:01.369Z,100103.16
2018-11-20T14:06:01.973Z,100103.61
2018-11-20T14:09:10.946Z,100096.72
2018-11-20T14:11:53.874Z,100092.83
2018-11-20T14:14:45.136Z,100083.72
2018-11-20T14:17:43.401Z,100084.14
2018-11-20T14:20:35.497Z,100083.69
2018-11-20T14:23:29.292Z,100077.20
2018-11-20T14:26:19.552Z,100074.59
2018-11-20T14:29:25.101Z,100068.98
2018-11-20T14:32:24.965Z,100075.08
2018-11-20T14:35:01.313Z,100070.77
2018-11-20T14:37:47.831Z,100076.80
2018-11-20T14:40:34.003Z,100074.17
2018-11-20T14:43:33.571Z,100072.00
2018-11-20T14:46:19.698Z,100074.18
2018-11-20T14:49:29.307Z,100077.20
2018-11-20T14:52:24.492Z,100082.81
2018-11-20T14:55:21.130Z,100076.32
2018-11-20T14:58:07.135Z,100078.07
2018-11-20T15:00:53.179Z,100076.35
2018-11-20T15:03:45.360Z,100081.09
2018-11-20T15:06:31.352Z,100081.55
2018-11-20T15:09:33.977Z,100075.05
2018-11-20T15:12:12.697Z,100079.37
2018-11-20T15:15:00.164Z,100078.55
2018-11-20T15:18:03.249Z,100078.97
2018-11-20T15:20:49.555Z,100071.64
2018-11-20T15:23:37.073Z,100081.58
2018-11-20T15:26:33.571Z,100081.57
2018-11-20T15:29:21.282Z,100085.04
2018-11-20T15:32:11.868Z,100087.64
2018-11-20T15:34:58.184Z,100083.74
2018-11-20T15:37:48.771Z,100084.59
2018-11-20T15:40:51.428Z,100086.34
2018-11-20T15:43:37.397Z,100077.28
2018-11-20T15:46:24.186Z,100085.07
2018-11-20T15:49:34.976Z,100085.04
2018-11-20T15:52:07.196Z,100085.04
2018-11-20T15:55:07.019Z,100081.99
2018-11-20T15:58:00.406Z,100084.59
2018-11-20T16:00:45.087Z,100078.98
2018-11-20T16:03:31.311Z,100091.11
2018-11-20T16:06:07.150Z,100082.48
2018-11-20T16:09:06.607Z,100084.22
2018-11-20T16:12:05.936Z,100083.38
2018-11-20T16:15:02.271Z,100081.63
2018-11-20T16:17:48.472Z,100085.07
2018-11-20T16:21:14.162Z,100086.81
2018-11-20T16:24:09.098Z,100076.89
2018-11-20T16:26:55.144Z,100080.81
2018-11-20T16:29:48.309Z,100076.91
2018-11-20T16:32:34.898Z,100078.21
2018-11-20T16:35:21.226Z,100077.34
2018-11-20T16:37:57.169Z,100085.09
2018-11-20T16:40:59.625Z,100081.20
2018-11-20T16:43:47.129Z,100077.31
2018-11-20T16:46:59.088Z,100084.67
2018-11-20T16:49:52.500Z,100091.16
2018-11-20T16:52:45.065Z,100089.44
2018-11-20T16:55:30.203Z,100093.30
2018-11-20T16:58:17.814Z,100098.53
2018-11-20T17:01:05.319Z,100083.83
2018-11-20T17:03:46.954Z,100080.80
2018-11-20T17:06:43.113Z,100091.23
2018-11-20T17:09:48.880Z,100096.84
2018-11-20T17:12:45.234Z,100099.47
2018-11-20T17:15:31.246Z,100102.48
2018-11-20T17:18:20.542Z,100097.30
2018-11-20T17:21:06.717Z,100097.30
2018-11-20T17:24:16.673Z,100100.34
2018-11-20T17:27:02.993Z,100103.80
2018-11-20T17:29:50.669Z,100104.23
2018-11-20T17:32:47.171Z,100100.41
2018-11-20T17:35:39.768Z,100100.41
2018-11-20T17:38:42.134Z,100113.34
2018-11-20T17:41:32.839Z,100114.64
2018-11-20T17:44:23.150Z,100129.33
2018-11-20T17:47:19.893Z,100125.02
2018-11-20T17:50:03.686Z,100131.50
2018-11-20T17:52:53.155Z,100142.75
2018-11-20T17:55:40.647Z,100144.49
2018-11-20T17:58:21.462Z,100142.34
2018-11-20T18:01:03.972Z,100138.45
2018-11-20T18:03:50.458Z,100136.70
2018-11-20T18:06:36.840Z,100146.63
2018-11-20T18:09:26.171Z,100136.70
2018-11-20T18:12:12.657Z,100147.08
2018-11-20T18:14:59.262Z,100142.36
2018-11-20T18:17:51.789Z,100139.31
2018-11-20T18:20:40.689Z,100145.80
2018-11-20T18:23:34.015Z,100139.77
2018-11-20T18:26:20.480Z,100142.78
2018-11-20T18:29:32.521Z,100153.16
2018-11-20T18:32:18.831Z,100154.89
2018-11-20T18:35:09.681Z,100157.52
2018-11-20T18:38:03.379Z,100137.19
2018-11-20T18:41:05.936Z,100140.66
2018-11-20T18:43:52.075Z,100138.08
2018-11-20T18:46:48.851Z,100135.03
2018-11-20T18:49:48.494Z,100136.77
2018-11-20T18:52:31.530Z,100149.30
2018-11-20T18:55:22.405Z,100145.85
2018-11-20T18:58:12.637Z,100143.25
2018-11-20T19:00:59.002Z,100148.85
2018-11-20T19:03:49.563Z,100141.97
2018-11-20T19:06:35.867Z,100145.41
2018-11-20T19:12:10.654Z,100149.33
2018-11-20T19:14:56.994Z,100154.52
2018-11-20T19:17:38.560Z,100162.30
2018-11-20T19:20:29.335Z,100169.22
2018-11-20T19:23:22.787Z,100170.95
2018-11-20T19:26:28.363Z,100178.73
2018-11-20T19:29:24.997Z,100192.98
2018-11-20T19:32:09.573Z,100188.63
2018-11-20T19:35:00.167Z,100190.40
2018-11-20T19:38:06.121Z,100196.00
2018-11-20T19:40:52.095Z,100198.17
2018-11-20T19:43:38.460Z,100201.64
2018-11-20T19:46:30.359Z,100202.48
2018-11-20T19:49:14.085Z,100204.64
2018-11-20T19:52:07.348Z,100208.97
2018-11-20T19:54:57.420Z,100210.27
2018-11-20T19:57:44.963Z,100213.30
2018-11-20T20:00:50.660Z,100211.13
2018-11-20T20:03:41.007Z,100210.27
2018-11-20T20:06:49.719Z,100215.86
2018-11-20T20:09:46.135Z,100224.09
2018-11-20T20:12:36.681Z,100218.48
2018-11-20T20:15:30.622Z,100224.97
2018-11-20T20:18:24.096Z,100223.66
2018-11-20T20:21:10.154Z,100226.25
2018-11-20T20:23:48.017Z,100235.74
2018-11-20T20:26:34.446Z,100239.63
2018-11-20T20:29:19.672Z,100240.09
2018-11-20T20:31:58.539Z,100249.59
2018-11-20T20:34:48.626Z,100235.75
2018-11-20T20:37:51.180Z,100246.12
2018-11-20T20:40:37.240Z,100247.43
2018-11-20T20:43:23.649Z,100255.64
2018-11-20T20:46:09.884Z,100252.62
2018-11-20T20:48:58.246Z,100249.58
2018-11-20T20:51:45.941Z,100257.80
2018-11-20T20:54:32.186Z,100263.86
2018-11-20T20:57:28.832Z,100268.16
2018-11-20T21:00:14.996Z,100267.33
2018-11-20T21:03:17.848Z,100266.88
2018-11-20T21:06:36.412Z,100264.31
2018-11-20T21:09:36.010Z,100266.47
2018-11-20T21:12:38.945Z,100260.87
2018-11-20T21:15:25.711Z,100255.67
2018-11-20T21:18:22.554Z,100272.52
2018-11-20T21:21:25.916Z,100277.28
2018-11-20T21:24:19.388Z,100276.84
2018-11-20T21:27:06.923Z,100276.84
2018-11-20T21:30:09.856Z,100275.09
2018-11-20T21:33:16.731Z,100286.76
2018-11-20T21:36:04.230Z,100295.83
2018-11-20T21:38:50.808Z,100281.16
2018-11-20T21:41:51.500Z,100298.42
2018-11-20T21:44:38.215Z,100306.62
2018-11-20T21:47:24.610Z,100310.07
2018-11-20T21:50:12.180Z,100310.07
2018-11-20T21:53:00.228Z,100304.87
2018-11-20T21:55:49.660Z,100318.26
2018-11-20T21:58:36.043Z,100316.52
2018-11-20T22:01:24.742Z,100320.81
2018-11-20T22:04:11.336Z,100322.11
2018-11-20T22:07:01.608Z,100335.06
2018-11-20T22:10:00.919Z,100325.53
2018-11-20T22:12:47.110Z,100320.80
2018-11-20T22:15:27.738Z,100329.00
2018-11-20T22:18:40.435Z,100312.59
2018-11-20T22:21:23.093Z,100318.23
2018-11-20T22:24:10.716Z,100333.77
2018-11-20T22:26:58.450Z,100328.59
2018-11-20T22:30:00.809Z,100336.78
2018-11-20T22:32:51.403Z,100339.84
2018-11-20T22:35:42.083Z,100341.14
2018-11-20T22:38:38.568Z,100333.36
2018-11-20T22:41:29.995Z,100342.00
2018-11-20T22:44:16.369Z,100343.73
2018-11-20T22:47:02.503Z,100358.85
2018-11-20T22:49:50.005Z,100353.69
2018-11-20T22:52:55.743Z,100354.98
2018-11-20T22:55:42.227Z,100358.44
2018-11-20T22:58:27.567Z,100352.41
2018-11-20T23:01:07.740Z,100356.72
2018-11-20T23:03:58.401Z,100358.86
2018-11-20T23:06:43.531Z,100351.11
2018-11-20T23:09:12.421Z,100348.95
2018-11-20T23:11:41.308Z,100342.48
2018-11-20T23:14:09.750Z,100335.13
2018-11-20T23:16:38.316Z,100335.58
2018-11-20T23:19:06.921Z,100343.34
2018-11-20T23:21:35.353Z,100344.64
2018-11-20T23:24:03.897Z,100332.98
2018-11-20T23:26:32.533Z,100336.42
2018-11-20T23:29:01.033Z,100337.72
2018-11-20T23:31:31.813Z,100332.53
2018-11-20T23:34:00.264Z,100343.78
2018-11-20T23:36:28.709Z,100332.55
2018-11-20T23:39:05.002Z,100330.80
2018-11-20T23:41:33.587Z,100325.63
2018-11-20T23:44:08.071Z,100329.09
2018-11-20T23:46:42.343Z,100321.74
2018-11-20T23:49:17.511Z,100324.34
2018-11-20T23:51:42.231Z,100323.48
2018-11-20T23:54:25.855Z,100325.20
2018-11-20T23:56:54.347Z,100320.45
2018-11-20T23:59:31.006Z,100311.81
